sensor_id;sensor_type;location;lat;lon;timestamp;P1;durP1;ratioP1;P2;durP2;ratioP2
3924;SDS011;1977;52.274;10.518;2023-09-19T00:00:31;3.03;;;2.93;;
3924;SDS011;1977;52.274;10.518;2023-09-19T00:02:59;2.90;;;2.80;;
3924;SDS011;1977;52.274;10.518;2023-09-19T00:05:27;3.20;;;3.10;;
3924;SDS011;1977;52.274;10.518;2023-09-19T00:07:55;3.33;;;3.13;;
3924;SDS011;1977;52.274;10.518;2023-09-19T00:10:23;3.17;;;2.90;;
3924;SDS011;1977;52.274;10.518;2023-09-19T00:12:52;4.00;;;3.80;;
3924;SDS011;1977;52.274;10.518;2023-09-19T00:15:21;3.60;;;3.30;;
3924;SDS011;1977;52.274;10.518;2023-09-19T00:17:48;2.90;;;2.80;;
3924;SDS011;1977;52.274;10.518;2023-09-19T00:20:18;3.13;;;3.03;;
3924;SDS011;1977;52.274;10.518;2023-09-19T00:22:48;3.87;;;3.57;;
3924;SDS011;1977;52.274;10.518;2023-09-19T00:25:15;3.50;;;3.30;;
3924;SDS011;1977;52.274;10.518;2023-09-19T00:27:42;3.77;;;3.47;;
3924;SDS011;1977;52.274;10.518;2023-09-19T00:30:10;3.67;;;3.47;;
3924;SDS011;1977;52.274;10.518;2023-09-19T00:32:41;3.13;;;3.03;;
3924;SDS011;1977;52.274;10.518;2023-09-19T00:35:08;3.17;;;3.07;;
3924;SDS011;1977;52.274;10.518;2023-09-19T00:37:36;3.03;;;2.83;;
3924;SDS011;1977;52.274;10.518;2023-09-19T00:40:06;3.37;;;3.27;;
3924;SDS011;1977;52.274;10.518;2023-09-19T00:42:37;3.50;;;3.30;;
3924;SDS011;1977;52.274;10.518;2023-09-19T00:45:04;2.63;;;2.50;;
3924;SDS011;1977;52.274;10.518;2023-09-19T00:47:34;3.03;;;2.93;;
3924;SDS011;1977;52.274;10.518;2023-09-19T00:50:02;3.27;;;3.17;;
3924;SDS011;1977;52.274;10.518;2023-09-19T00:52:32;3.07;;;2.87;;
3924;SDS011;1977;52.274;10.518;2023-09-19T00:55:02;2.90;;;2.80;;
3924;SDS011;1977;52.274;10.518;2023-09-19T00:57:32;3.47;;;3.17;;
3924;SDS011;1977;52.274;10.518;2023-09-19T00:59:59;2.70;;;2.60;;
3924;SDS011;1977;52.274;10.518;2023-09-19T01:02:30;3.00;;;2.90;;
3924;SDS011;1977;52.274;10.518;2023-09-19T01:04:57;2.53;;;2.43;;
3924;SDS011;1977;52.274;10.518;2023-09-19T01:07:24;3.13;;;2.90;;
3924;SDS011;1977;52.274;10.518;2023-09-19T01:09:51;3.10;;;3.00;;
3924;SDS011;1977;52.274;10.518;2023-09-19T01:12:22;3.07;;;2.87;;
3924;SDS011;1977;52.274;10.518;2023-09-19T01:15:01;2.83;;;2.73;;
3924;SDS011;1977;52.274;10.518;2023-09-19T01:17:39;4.03;;;3.87;;
3924;SDS011;1977;52.274;10.518;2023-09-19T01:20:17;3.10;;;2.90;;
3924;SDS011;1977;52.274;10.518;2023-09-19T01:22:53;3.50;;;3.20;;
3924;SDS011;1977;52.274;10.518;2023-09-19T01:28:32;3.23;;;3.13;;
3924;SDS011;1977;52.274;10.518;2023-09-19T01:31:06;3.00;;;2.90;;
3924;SDS011;1977;52.274;10.518;2023-09-19T01:33:54;4.07;;;2.90;;
3924;SDS011;1977;52.274;10.518;2023-09-19T01:36:26;3.00;;;2.90;;
3924;SDS011;1977;52.274;10.518;2023-09-19T01:38:54;3.23;;;3.03;;
3924;SDS011;1977;52.274;10.518;2023-09-19T01:41:25;3.10;;;3.00;;
3924;SDS011;1977;52.274;10.518;2023-09-19T01:43:59;3.30;;;3.20;;
3924;SDS011;1977;52.274;10.518;2023-09-19T01:46:32;3.53;;;3.43;;
3924;SDS011;1977;52.274;10.518;2023-09-19T01:49:04;3.17;;;3.07;;
3924;SDS011;1977;52.274;10.518;2023-09-19T01:51:42;3.73;;;3.50;;
3924;SDS011;1977;52.274;10.518;2023-09-19T01:54:16;3.33;;;3.17;;
3924;SDS011;1977;52.274;10.518;2023-09-19T01:56:48;3.50;;;3.40;;
3924;SDS011;1977;52.274;10.518;2023-09-19T01:59:21;3.20;;;3.10;;
3924;SDS011;1977;52.274;10.518;2023-09-19T02:01:53;3.47;;;3.17;;
3924;SDS011;1977;52.274;10.518;2023-09-19T02:04:22;3.33;;;3.23;;
3924;SDS011;1977;52.274;10.518;2023-09-19T02:06:49;3.40;;;3.20;;
3924;SDS011;1977;52.274;10.518;2023-09-19T02:09:16;3.33;;;3.23;;
3924;SDS011;1977;52.274;10.518;2023-09-19T02:11:43;3.30;;;3.20;;
3924;SDS011;1977;52.274;10.518;2023-09-19T02:14:10;3.00;;;2.90;;
3924;SDS011;1977;52.274;10.518;2023-09-19T02:16:37;3.30;;;3.20;;
3924;SDS011;1977;52.274;10.518;2023-09-19T02:19:05;3.30;;;3.10;;
3924;SDS011;1977;52.274;10.518;2023-09-19T02:21:32;3.90;;;3.03;;
3924;SDS011;1977;52.274;10.518;2023-09-19T02:23:59;3.20;;;3.10;;
3924;SDS011;1977;52.274;10.518;2023-09-19T02:26:28;3.23;;;3.13;;
3924;SDS011;1977;52.274;10.518;2023-09-19T02:28:54;2.80;;;2.70;;
3924;SDS011;1977;52.274;10.518;2023-09-19T02:31:21;3.00;;;2.90;;
3924;SDS011;1977;52.274;10.518;2023-09-19T02:33:48;3.00;;;2.90;;
3924;SDS011;1977;52.274;10.518;2023-09-19T02:36:17;3.30;;;3.10;;
3924;SDS011;1977;52.274;10.518;2023-09-19T02:38:45;3.50;;;3.30;;
3924;SDS011;1977;52.274;10.518;2023-09-19T02:41:12;3.20;;;3.10;;
3924;SDS011;1977;52.274;10.518;2023-09-19T02:43:39;3.80;;;3.60;;
3924;SDS011;1977;52.274;10.518;2023-09-19T02:46:08;3.40;;;3.30;;
3924;SDS011;1977;52.274;10.518;2023-09-19T02:48:36;3.33;;;3.13;;
3924;SDS011;1977;52.274;10.518;2023-09-19T02:51:03;4.70;;;3.60;;
3924;SDS011;1977;52.274;10.518;2023-09-19T02:53:32;3.80;;;3.60;;
3924;SDS011;1977;52.274;10.518;2023-09-19T02:56:00;3.83;;;3.63;;
3924;SDS011;1977;52.274;10.518;2023-09-19T02:58:29;3.40;;;3.30;;
3924;SDS011;1977;52.274;10.518;2023-09-19T03:01:07;3.70;;;3.40;;
3924;SDS011;1977;52.274;10.518;2023-09-19T03:03:34;3.80;;;3.47;;
3924;SDS011;1977;52.274;10.518;2023-09-19T03:06:02;3.43;;;3.20;;
3924;SDS011;1977;52.274;10.518;2023-09-19T03:08:29;3.63;;;3.40;;
3924;SDS011;1977;52.274;10.518;2023-09-19T03:11:02;4.30;;;4.03;;
3924;SDS011;1977;52.274;10.518;2023-09-19T03:13:31;3.93;;;3.73;;
3924;SDS011;1977;52.274;10.518;2023-09-19T03:15:58;3.97;;;3.60;;
3924;SDS011;1977;52.274;10.518;2023-09-19T03:18:24;3.10;;;3.00;;
3924;SDS011;1977;52.274;10.518;2023-09-19T03:20:52;4.10;;;3.77;;
3924;SDS011;1977;52.274;10.518;2023-09-19T03:23:20;3.90;;;3.50;;
3924;SDS011;1977;52.274;10.518;2023-09-19T03:25:48;3.40;;;3.30;;
3924;SDS011;1977;52.274;10.518;2023-09-19T03:28:17;3.43;;;3.33;;
3924;SDS011;1977;52.274;10.518;2023-09-19T03:30:45;4.13;;;3.93;;
3924;SDS011;1977;52.274;10.518;2023-09-19T03:33:12;3.83;;;3.63;;
3924;SDS011;1977;52.274;10.518;2023-09-19T03:35:39;4.40;;;4.10;;
3924;SDS011;1977;52.274;10.518;2023-09-19T03:38:07;4.43;;;4.03;;
3924;SDS011;1977;52.274;10.518;2023-09-19T03:40:34;4.13;;;3.93;;
3924;SDS011;1977;52.274;10.518;2023-09-19T03:43:03;4.47;;;4.27;;
3924;SDS011;1977;52.274;10.518;2023-09-19T03:45:31;4.07;;;3.87;;
3924;SDS011;1977;52.274;10.518;2023-09-19T03:47:59;4.87;;;4.47;;
3924;SDS011;1977;52.274;10.518;2023-09-19T03:50:26;4.57;;;4.37;;
3924;SDS011;1977;52.274;10.518;2023-09-19T03:52:55;4.33;;;4.03;;
3924;SDS011;1977;52.274;10.518;2023-09-19T03:55:23;4.43;;;4.00;;
3924;SDS011;1977;52.274;10.518;2023-09-19T03:57:49;4.37;;;4.07;;
3924;SDS011;1977;52.274;10.518;2023-09-19T04:00:17;3.87;;;3.67;;
3924;SDS011;1977;52.274;10.518;2023-09-19T04:02:48;4.90;;;4.40;;
3924;SDS011;1977;52.274;10.518;2023-09-19T04:05:14;4.67;;;4.27;;
3924;SDS011;1977;52.274;10.518;2023-09-19T04:07:41;3.77;;;3.57;;
3924;SDS011;1977;52.274;10.518;2023-09-19T04:10:08;4.37;;;4.00;;
3924;SDS011;1977;52.274;10.518;2023-09-19T04:12:36;4.30;;;4.10;;
3924;SDS011;1977;52.274;10.518;2023-09-19T04:15:04;4.23;;;3.93;;
3924;SDS011;1977;52.274;10.518;2023-09-19T04:17:32;4.27;;;4.00;;
3924;SDS011;1977;52.274;10.518;2023-09-19T04:20:01;4.30;;;3.87;;
3924;SDS011;1977;52.274;10.518;2023-09-19T04:22:32;4.50;;;4.30;;
3924;SDS011;1977;52.274;10.518;2023-09-19T04:24:59;4.60;;;4.30;;
3924;SDS011;1977;52.274;10.518;2023-09-19T04:27:27;4.27;;;4.07;;
3924;SDS011;1977;52.274;10.518;2023-09-19T04:29:54;4.57;;;4.27;;
3924;SDS011;1977;52.274;10.518;2023-09-19T04:32:24;4.33;;;4.03;;
3924;SDS011;1977;52.274;10.518;2023-09-19T04:34:51;4.70;;;4.40;;
3924;SDS011;1977;52.274;10.518;2023-09-19T04:37:21;8.27;;;7.47;;
3924;SDS011;1977;52.274;10.518;2023-09-19T04:39:48;5.23;;;4.83;;
3924;SDS011;1977;52.274;10.518;2023-09-19T04:42:15;6.73;;;5.30;;
3924;SDS011;1977;52.274;10.518;2023-09-19T04:44:42;5.77;;;5.37;;
3924;SDS011;1977;52.274;10.518;2023-09-19T04:47:09;6.00;;;5.40;;
3924;SDS011;1977;52.274;10.518;2023-09-19T04:49:37;6.20;;;5.80;;
3924;SDS011;1977;52.274;10.518;2023-09-19T04:52:05;6.23;;;5.80;;
3924;SDS011;1977;52.274;10.518;2023-09-19T04:54:33;6.43;;;6.03;;
3924;SDS011;1977;52.274;10.518;2023-09-19T04:57:00;6.20;;;5.80;;
3924;SDS011;1977;52.274;10.518;2023-09-19T04:59:27;6.10;;;5.53;;
3924;SDS011;1977;52.274;10.518;2023-09-19T05:01:54;7.17;;;6.60;;
3924;SDS011;1977;52.274;10.518;2023-09-19T05:04:21;8.23;;;7.10;;
3924;SDS011;1977;52.274;10.518;2023-09-19T05:06:48;6.43;;;5.93;;
3924;SDS011;1977;52.274;10.518;2023-09-19T05:09:15;7.20;;;6.60;;
3924;SDS011;1977;52.274;10.518;2023-09-19T05:11:46;6.40;;;5.90;;
3924;SDS011;1977;52.274;10.518;2023-09-19T05:14:13;5.77;;;5.47;;
3924;SDS011;1977;52.274;10.518;2023-09-19T05:16:40;6.23;;;5.73;;
3924;SDS011;1977;52.274;10.518;2023-09-19T05:19:06;6.10;;;5.60;;
3924;SDS011;1977;52.274;10.518;2023-09-19T05:21:36;5.53;;;5.13;;
3924;SDS011;1977;52.274;10.518;2023-09-19T05:24:04;5.97;;;5.47;;
3924;SDS011;1977;52.274;10.518;2023-09-19T05:26:31;5.83;;;5.50;;
3924;SDS011;1977;52.274;10.518;2023-09-19T05:28:59;6.03;;;5.43;;
3924;SDS011;1977;52.274;10.518;2023-09-19T05:31:28;6.00;;;5.60;;
3924;SDS011;1977;52.274;10.518;2023-09-19T05:33:55;6.20;;;5.30;;
3924;SDS011;1977;52.274;10.518;2023-09-19T05:36:26;5.63;;;5.23;;
3924;SDS011;1977;52.274;10.518;2023-09-19T05:38:54;5.60;;;5.30;;
3924;SDS011;1977;52.274;10.518;2023-09-19T05:41:21;8.17;;;6.40;;
3924;SDS011;1977;52.274;10.518;2023-09-19T05:43:48;6.80;;;6.20;;
3924;SDS011;1977;52.274;10.518;2023-09-19T05:46:17;5.80;;;5.17;;
3924;SDS011;1977;52.274;10.518;2023-09-19T05:48:44;6.30;;;5.90;;
3924;SDS011;1977;52.274;10.518;2023-09-19T05:51:12;5.80;;;5.07;;
3924;SDS011;1977;52.274;10.518;2023-09-19T05:53:39;5.70;;;5.30;;
3924;SDS011;1977;52.274;10.518;2023-09-19T05:56:08;6.27;;;5.73;;
3924;SDS011;1977;52.274;10.518;2023-09-19T05:58:36;7.40;;;6.63;;
3924;SDS011;1977;52.274;10.518;2023-09-19T06:01:03;7.03;;;6.40;;
3924;SDS011;1977;52.274;10.518;2023-09-19T06:03:33;8.20;;;6.07;;
3924;SDS011;1977;52.274;10.518;2023-09-19T06:06:00;6.33;;;5.80;;
3924;SDS011;1977;52.274;10.518;2023-09-19T06:08:27;6.77;;;6.17;;
3924;SDS011;1977;52.274;10.518;2023-09-19T06:10:56;7.30;;;6.50;;
3924;SDS011;1977;52.274;10.518;2023-09-19T06:13:23;6.70;;;6.20;;
3924;SDS011;1977;52.274;10.518;2023-09-19T06:15:51;6.27;;;5.87;;
3924;SDS011;1977;52.274;10.518;2023-09-19T06:18:19;6.37;;;5.77;;
3924;SDS011;1977;52.274;10.518;2023-09-19T06:20:47;6.33;;;5.83;;
3924;SDS011;1977;52.274;10.518;2023-09-19T06:23:16;11.00;;;6.47;;
3924;SDS011;1977;52.274;10.518;2023-09-19T06:25:43;6.20;;;5.60;;
3924;SDS011;1977;52.274;10.518;2023-09-19T06:28:09;8.53;;;6.87;;
3924;SDS011;1977;52.274;10.518;2023-09-19T06:30:38;7.00;;;5.83;;
3924;SDS011;1977;52.274;10.518;2023-09-19T06:33:06;6.73;;;6.10;;
3924;SDS011;1977;52.274;10.518;2023-09-19T06:35:33;9.43;;;6.97;;
3924;SDS011;1977;52.274;10.518;2023-09-19T06:38:03;6.97;;;6.37;;
3924;SDS011;1977;52.274;10.518;2023-09-19T06:40:30;9.37;;;7.43;;
3924;SDS011;1977;52.274;10.518;2023-09-19T06:42:57;7.17;;;6.40;;
3924;SDS011;1977;52.274;10.518;2023-09-19T06:45:27;8.20;;;6.27;;
3924;SDS011;1977;52.274;10.518;2023-09-19T06:47:54;6.50;;;6.00;;
3924;SDS011;1977;52.274;10.518;2023-09-19T06:50:23;7.53;;;6.50;;
3924;SDS011;1977;52.274;10.518;2023-09-19T06:52:50;11.93;;;7.03;;
3924;SDS011;1977;52.274;10.518;2023-09-19T06:55:21;7.27;;;6.80;;
3924;SDS011;1977;52.274;10.518;2023-09-19T06:57:50;7.80;;;7.10;;
3924;SDS011;1977;52.274;10.518;2023-09-19T07:00:19;6.90;;;6.30;;
3924;SDS011;1977;52.274;10.518;2023-09-19T07:02:54;6.37;;;5.80;;
3924;SDS011;1977;52.274;10.518;2023-09-19T07:05:22;7.93;;;7.13;;
3924;SDS011;1977;52.274;10.518;2023-09-19T07:07:49;6.43;;;5.83;;
3924;SDS011;1977;52.274;10.518;2023-09-19T07:10:16;7.77;;;6.90;;
3924;SDS011;1977;52.274;10.518;2023-09-19T07:12:44;8.13;;;5.80;;
3924;SDS011;1977;52.274;10.518;2023-09-19T07:15:11;9.07;;;6.37;;
3924;SDS011;1977;52.274;10.518;2023-09-19T07:17:38;6.80;;;6.40;;
3924;SDS011;1977;52.274;10.518;2023-09-19T07:20:05;7.40;;;6.77;;
3924;SDS011;1977;52.274;10.518;2023-09-19T07:22:33;7.70;;;6.40;;
3924;SDS011;1977;52.274;10.518;2023-09-19T07:25:00;6.30;;;5.70;;
3924;SDS011;1977;52.274;10.518;2023-09-19T07:27:27;6.20;;;5.70;;
3924;SDS011;1977;52.274;10.518;2023-09-19T07:29:55;7.43;;;6.47;;
3924;SDS011;1977;52.274;10.518;2023-09-19T07:32:22;9.17;;;6.27;;
3924;SDS011;1977;52.274;10.518;2023-09-19T07:34:49;8.87;;;6.17;;
3924;SDS011;1977;52.274;10.518;2023-09-19T07:37:16;6.70;;;5.70;;
3924;SDS011;1977;52.274;10.518;2023-09-19T07:39:43;6.13;;;5.53;;
3924;SDS011;1977;52.274;10.518;2023-09-19T07:42:09;6.37;;;5.87;;
3924;SDS011;1977;52.274;10.518;2023-09-19T07:44:42;8.63;;;7.17;;
3924;SDS011;1977;52.274;10.518;2023-09-19T07:47:13;19.53;;;7.87;;
3924;SDS011;1977;52.274;10.518;2023-09-19T07:49:40;6.23;;;5.73;;
3924;SDS011;1977;52.274;10.518;2023-09-19T07:52:07;28.07;;;8.50;;
3924;SDS011;1977;52.274;10.518;2023-09-19T07:54:34;10.70;;;5.93;;
3924;SDS011;1977;52.274;10.518;2023-09-19T07:57:01;9.33;;;5.47;;
3924;SDS011;1977;52.274;10.518;2023-09-19T07:59:29;13.80;;;6.47;;
3924;SDS011;1977;52.274;10.518;2023-09-19T08:01:56;13.50;;;6.80;;
3924;SDS011;1977;52.274;10.518;2023-09-19T08:04:24;9.93;;;4.80;;
3924;SDS011;1977;52.274;10.518;2023-09-19T08:06:51;6.10;;;4.83;;
3924;SDS011;1977;52.274;10.518;2023-09-19T08:09:19;6.03;;;5.37;;
3924;SDS011;1977;52.274;10.518;2023-09-19T08:11:46;9.53;;;5.77;;
3924;SDS011;1977;52.274;10.518;2023-09-19T08:14:13;5.60;;;5.17;;
3924;SDS011;1977;52.274;10.518;2023-09-19T08:16:40;13.37;;;6.57;;
3924;SDS011;1977;52.274;10.518;2023-09-19T08:19:09;12.97;;;5.50;;
3924;SDS011;1977;52.274;10.518;2023-09-19T08:21:37;7.53;;;5.10;;
3924;SDS011;1977;52.274;10.518;2023-09-19T08:24:04;6.43;;;4.90;;
3924;SDS011;1977;52.274;10.518;2023-09-19T08:26:31;5.87;;;5.30;;
3924;SDS011;1977;52.274;10.518;2023-09-19T08:28:58;4.63;;;4.23;;
3924;SDS011;1977;52.274;10.518;2023-09-19T08:31:29;8.50;;;4.83;;
3924;SDS011;1977;52.274;10.518;2023-09-19T08:33:56;5.00;;;4.70;;
3924;SDS011;1977;52.274;10.518;2023-09-19T08:36:23;5.37;;;4.97;;
3924;SDS011;1977;52.274;10.518;2023-09-19T08:38:51;5.40;;;5.00;;
3924;SDS011;1977;52.274;10.518;2023-09-19T08:41:18;4.97;;;4.50;;
3924;SDS011;1977;52.274;10.518;2023-09-19T08:43:45;4.90;;;4.60;;
3924;SDS011;1977;52.274;10.518;2023-09-19T08:46:14;6.67;;;5.17;;
3924;SDS011;1977;52.274;10.518;2023-09-19T08:48:45;5.57;;;5.10;;
3924;SDS011;1977;52.274;10.518;2023-09-19T08:51:17;14.47;;;7.03;;
3924;SDS011;1977;52.274;10.518;2023-09-19T08:53:49;10.53;;;5.40;;
3924;SDS011;1977;52.274;10.518;2023-09-19T08:56:24;10.23;;;5.07;;
3924;SDS011;1977;52.274;10.518;2023-09-19T08:58:55;6.53;;;5.33;;
3924;SDS011;1977;52.274;10.518;2023-09-19T09:01:25;5.60;;;5.00;;
3924;SDS011;1977;52.274;10.518;2023-09-19T09:03:54;23.50;;;8.10;;
3924;SDS011;1977;52.274;10.518;2023-09-19T09:06:22;5.90;;;5.30;;
3924;SDS011;1977;52.274;10.518;2023-09-19T09:08:52;7.20;;;4.70;;
3924;SDS011;1977;52.274;10.518;2023-09-19T09:11:19;8.80;;;5.73;;
3924;SDS011;1977;52.274;10.518;2023-09-19T09:13:48;28.57;;;7.37;;
3924;SDS011;1977;52.274;10.518;2023-09-19T09:16:15;7.13;;;4.77;;
3924;SDS011;1977;52.274;10.518;2023-09-19T09:18:44;4.83;;;4.47;;
3924;SDS011;1977;52.274;10.518;2023-09-19T09:21:11;5.60;;;5.10;;
3924;SDS011;1977;52.274;10.518;2023-09-19T09:23:40;10.63;;;5.67;;
3924;SDS011;1977;52.274;10.518;2023-09-19T09:26:08;11.63;;;5.87;;
3924;SDS011;1977;52.274;10.518;2023-09-19T09:28:35;4.77;;;4.37;;
3924;SDS011;1977;52.274;10.518;2023-09-19T09:31:12;5.67;;;4.80;;
3924;SDS011;1977;52.274;10.518;2023-09-19T09:33:52;6.93;;;4.90;;
3924;SDS011;1977;52.274;10.518;2023-09-19T09:36:21;17.10;;;6.27;;
3924;SDS011;1977;52.274;10.518;2023-09-19T09:39:01;7.80;;;5.40;;
3924;SDS011;1977;52.274;10.518;2023-09-19T09:41:42;5.10;;;4.70;;
3924;SDS011;1977;52.274;10.518;2023-09-19T09:44:12;10.23;;;6.00;;
3924;SDS011;1977;52.274;10.518;2023-09-19T09:46:42;11.50;;;5.67;;
3924;SDS011;1977;52.274;10.518;2023-09-19T09:49:27;5.73;;;4.97;;
3924;SDS011;1977;52.274;10.518;2023-09-19T09:51:59;5.13;;;4.83;;
3924;SDS011;1977;52.274;10.518;2023-09-19T09:54:26;9.67;;;5.20;;
3924;SDS011;1977;52.274;10.518;2023-09-19T09:57:03;7.83;;;4.30;;
3924;SDS011;1977;52.274;10.518;2023-09-19T09:59:46;4.90;;;4.30;;
3924;SDS011;1977;52.274;10.518;2023-09-19T10:02:14;11.10;;;6.53;;
3924;SDS011;1977;52.274;10.518;2023-09-19T10:04:47;11.17;;;6.20;;
3924;SDS011;1977;52.274;10.518;2023-09-19T10:07:33;18.37;;;8.30;;
3924;SDS011;1977;52.274;10.518;2023-09-19T10:10:03;7.67;;;5.00;;
3924;SDS011;1977;52.274;10.518;2023-09-19T10:12:43;5.83;;;5.30;;
3924;SDS011;1977;52.274;10.518;2023-09-19T10:15:14;5.70;;;4.77;;
3924;SDS011;1977;52.274;10.518;2023-09-19T10:17:42;4.97;;;4.77;;
3924;SDS011;1977;52.274;10.518;2023-09-19T10:20:14;10.83;;;5.47;;
3924;SDS011;1977;52.274;10.518;2023-09-19T10:22:48;5.30;;;4.90;;
3924;SDS011;1977;52.274;10.518;2023-09-19T10:25:24;5.23;;;4.93;;
3924;SDS011;1977;52.274;10.518;2023-09-19T10:27:55;5.17;;;4.80;;
3924;SDS011;1977;52.274;10.518;2023-09-19T10:30:25;5.17;;;4.97;;
3924;SDS011;1977;52.274;10.518;2023-09-19T10:32:56;5.40;;;4.90;;
3924;SDS011;1977;52.274;10.518;2023-09-19T10:35:26;4.63;;;4.43;;
3924;SDS011;1977;52.274;10.518;2023-09-19T10:37:54;5.57;;;5.23;;
3924;SDS011;1977;52.274;10.518;2023-09-19T10:40:23;2.90;;;1.70;;
3924;SDS011;1977;52.274;10.518;2023-09-19T10:42:57;10.83;;;2.47;;
3924;SDS011;1977;52.274;10.518;2023-09-19T10:45:26;5.00;;;1.70;;
3924;SDS011;1977;52.274;10.518;2023-09-19T10:47:56;3.50;;;1.70;;
3924;SDS011;1977;52.274;10.518;2023-09-19T10:50:23;4.40;;;2.07;;
3924;SDS011;1977;52.274;10.518;2023-09-19T10:52:51;5.80;;;1.77;;
3924;SDS011;1977;52.274;10.518;2023-09-19T10:55:25;4.63;;;2.10;;
3924;SDS011;1977;52.274;10.518;2023-09-19T10:57:56;2.67;;;1.93;;
3924;SDS011;1977;52.274;10.518;2023-09-19T11:00:52;4.83;;;1.90;;
3924;SDS011;1977;52.274;10.518;2023-09-19T11:03:20;2.23;;;2.03;;
3924;SDS011;1977;52.274;10.518;2023-09-19T11:06:05;3.70;;;2.43;;
3924;SDS011;1977;52.274;10.518;2023-09-19T11:14:39;2.97;;;2.53;;
3924;SDS011;1977;52.274;10.518;2023-09-19T11:20:19;3.20;;;2.20;;
3924;SDS011;1977;52.274;10.518;2023-09-19T11:23:17;5.80;;;2.10;;
3924;SDS011;1977;52.274;10.518;2023-09-19T11:25:51;3.50;;;2.17;;
3924;SDS011;1977;52.274;10.518;2023-09-19T11:28:28;3.30;;;2.07;;
3924;SDS011;1977;52.274;10.518;2023-09-19T11:37:04;4.10;;;2.00;;
3924;SDS011;1977;52.274;10.518;2023-09-19T11:40:09;6.17;;;2.40;;
3924;SDS011;1977;52.274;10.518;2023-09-19T11:42:41;4.33;;;2.23;;
3924;SDS011;1977;52.274;10.518;2023-09-19T11:48:06;3.37;;;2.30;;
3924;SDS011;1977;52.274;10.518;2023-09-19T11:50:33;5.73;;;3.00;;
3924;SDS011;1977;52.274;10.518;2023-09-19T11:53:02;2.53;;;2.33;;
3924;SDS011;1977;52.274;10.518;2023-09-19T11:55:31;2.67;;;2.40;;
3924;SDS011;1977;52.274;10.518;2023-09-19T11:57:59;4.13;;;2.67;;
3924;SDS011;1977;52.274;10.518;2023-09-19T12:00:26;4.77;;;2.90;;
3924;SDS011;1977;52.274;10.518;2023-09-19T12:02:54;2.80;;;2.30;;
3924;SDS011;1977;52.274;10.518;2023-09-19T12:05:28;2.67;;;2.47;;
3924;SDS011;1977;52.274;10.518;2023-09-19T12:07:55;5.67;;;2.23;;
3924;SDS011;1977;52.274;10.518;2023-09-19T12:10:23;6.13;;;2.53;;
3924;SDS011;1977;52.274;10.518;2023-09-19T12:12:50;3.27;;;2.13;;
3924;SDS011;1977;52.274;10.518;2023-09-19T12:15:22;10.07;;;3.33;;
3924;SDS011;1977;52.274;10.518;2023-09-19T12:17:53;8.70;;;3.73;;
3924;SDS011;1977;52.274;10.518;2023-09-19T12:20:20;5.17;;;3.10;;
3924;SDS011;1977;52.274;10.518;2023-09-19T12:22:48;3.17;;;2.87;;
3924;SDS011;1977;52.274;10.518;2023-09-19T12:25:15;3.20;;;2.33;;
3924;SDS011;1977;52.274;10.518;2023-09-19T12:27:45;2.33;;;2.10;;
3924;SDS011;1977;52.274;10.518;2023-09-19T12:30:13;4.77;;;3.07;;
3924;SDS011;1977;52.274;10.518;2023-09-19T12:32:42;5.50;;;2.40;;
3924;SDS011;1977;52.274;10.518;2023-09-19T12:35:09;3.33;;;2.70;;
3924;SDS011;1977;52.274;10.518;2023-09-19T12:37:36;8.20;;;2.60;;
3924;SDS011;1977;52.274;10.518;2023-09-19T12:40:13;6.60;;;2.63;;
3924;SDS011;1977;52.274;10.518;2023-09-19T12:42:48;4.23;;;3.17;;
3924;SDS011;1977;52.274;10.518;2023-09-19T12:45:16;4.87;;;2.60;;
3924;SDS011;1977;52.274;10.518;2023-09-19T12:51:01;4.97;;;2.30;;
3924;SDS011;1977;52.274;10.518;2023-09-19T12:53:31;2.70;;;2.50;;
3924;SDS011;1977;52.274;10.518;2023-09-19T12:56:01;2.37;;;2.23;;
3924;SDS011;1977;52.274;10.518;2023-09-19T12:58:32;3.03;;;2.80;;
3924;SDS011;1977;52.274;10.518;2023-09-19T13:01:00;7.80;;;3.20;;
3924;SDS011;1977;52.274;10.518;2023-09-19T13:03:28;18.40;;;4.10;;
3924;SDS011;1977;52.274;10.518;2023-09-19T13:05:57;4.70;;;1.97;;
3924;SDS011;1977;52.274;10.518;2023-09-19T13:08:26;2.63;;;2.13;;
3924;SDS011;1977;52.274;10.518;2023-09-19T13:11:00;7.77;;;3.37;;
3924;SDS011;1977;52.274;10.518;2023-09-19T13:13:37;22.83;;;4.97;;
3924;SDS011;1977;52.274;10.518;2023-09-19T13:16:05;4.63;;;2.57;;
3924;SDS011;1977;52.274;10.518;2023-09-19T13:18:41;8.97;;;3.00;;
3924;SDS011;1977;52.274;10.518;2023-09-19T13:21:12;3.80;;;2.80;;
3924;SDS011;1977;52.274;10.518;2023-09-19T13:23:51;6.03;;;2.70;;
3924;SDS011;1977;52.274;10.518;2023-09-19T13:26:19;2.77;;;2.57;;
3924;SDS011;1977;52.274;10.518;2023-09-19T13:28:49;2.60;;;2.40;;
3924;SDS011;1977;52.274;10.518;2023-09-19T13:31:15;5.77;;;2.93;;
3924;SDS011;1977;52.274;10.518;2023-09-19T13:33:43;4.43;;;2.47;;
3924;SDS011;1977;52.274;10.518;2023-09-19T13:36:11;4.23;;;2.93;;
3924;SDS011;1977;52.274;10.518;2023-09-19T13:38:39;4.43;;;2.77;;
3924;SDS011;1977;52.274;10.518;2023-09-19T13:41:07;4.80;;;2.50;;
3924;SDS011;1977;52.274;10.518;2023-09-19T13:43:35;3.73;;;2.57;;
3924;SDS011;1977;52.274;10.518;2023-09-19T13:46:03;2.93;;;2.50;;
3924;SDS011;1977;52.274;10.518;2023-09-19T13:48:32;8.53;;;3.57;;
3924;SDS011;1977;52.274;10.518;2023-09-19T13:51:01;3.57;;;2.80;;
3924;SDS011;1977;52.274;10.518;2023-09-19T13:53:28;7.33;;;2.90;;
3924;SDS011;1977;52.274;10.518;2023-09-19T13:55:55;3.87;;;2.97;;
3924;SDS011;1977;52.274;10.518;2023-09-19T13:58:21;3.50;;;3.20;;
3924;SDS011;1977;52.274;10.518;2023-09-19T14:00:49;4.57;;;3.17;;
3924;SDS011;1977;52.274;10.518;2023-09-19T14:03:17;4.60;;;2.90;;
3924;SDS011;1977;52.274;10.518;2023-09-19T14:05:45;5.27;;;3.10;;
3924;SDS011;1977;52.274;10.518;2023-09-19T14:08:14;5.20;;;2.73;;
3924;SDS011;1977;52.274;10.518;2023-09-19T14:10:40;4.47;;;2.80;;
3924;SDS011;1977;52.274;10.518;2023-09-19T14:13:07;2.80;;;2.60;;
3924;SDS011;1977;52.274;10.518;2023-09-19T14:15:36;5.97;;;3.03;;
3924;SDS011;1977;52.274;10.518;2023-09-19T14:18:04;4.97;;;2.80;;
3924;SDS011;1977;52.274;10.518;2023-09-19T14:20:32;6.87;;;3.00;;
3924;SDS011;1977;52.274;10.518;2023-09-19T14:23:03;3.73;;;2.70;;
3924;SDS011;1977;52.274;10.518;2023-09-19T14:25:33;12.43;;;2.97;;
3924;SDS011;1977;52.274;10.518;2023-09-19T14:28:00;4.70;;;2.60;;
3924;SDS011;1977;52.274;10.518;2023-09-19T14:30:27;3.87;;;2.67;;
3924;SDS011;1977;52.274;10.518;2023-09-19T14:32:54;23.10;;;5.30;;
3924;SDS011;1977;52.274;10.518;2023-09-19T14:35:22;6.67;;;3.27;;
3924;SDS011;1977;52.274;10.518;2023-09-19T14:37:51;16.57;;;5.40;;
3924;SDS011;1977;52.274;10.518;2023-09-19T14:40:16;3.30;;;2.90;;
3924;SDS011;1977;52.274;10.518;2023-09-19T14:42:43;14.97;;;4.27;;
3924;SDS011;1977;52.274;10.518;2023-09-19T14:45:10;7.70;;;2.93;;
3924;SDS011;1977;52.274;10.518;2023-09-19T14:47:39;3.20;;;2.60;;
3924;SDS011;1977;52.274;10.518;2023-09-19T14:50:07;2.87;;;2.10;;
3924;SDS011;1977;52.274;10.518;2023-09-19T14:52:34;8.87;;;2.80;;
3924;SDS011;1977;52.274;10.518;2023-09-19T14:55:02;8.10;;;2.80;;
3924;SDS011;1977;52.274;10.518;2023-09-19T14:57:31;6.23;;;3.10;;
3924;SDS011;1977;52.274;10.518;2023-09-19T14:59:58;5.23;;;2.40;;
3924;SDS011;1977;52.274;10.518;2023-09-19T15:02:25;2.90;;;2.20;;
3924;SDS011;1977;52.274;10.518;2023-09-19T15:04:52;6.00;;;2.23;;
3924;SDS011;1977;52.274;10.518;2023-09-19T15:07:19;4.33;;;2.80;;
3924;SDS011;1977;52.274;10.518;2023-09-19T15:09:45;8.30;;;3.30;;
3924;SDS011;1977;52.274;10.518;2023-09-19T15:12:14;5.27;;;3.00;;
3924;SDS011;1977;52.274;10.518;2023-09-19T15:14:42;5.47;;;2.50;;
3924;SDS011;1977;52.274;10.518;2023-09-19T15:17:08;6.23;;;2.53;;
3924;SDS011;1977;52.274;10.518;2023-09-19T15:19:35;3.53;;;2.27;;
3924;SDS011;1977;52.274;10.518;2023-09-19T15:22:03;3.53;;;2.97;;
3924;SDS011;1977;52.274;10.518;2023-09-19T15:24:30;3.13;;;2.47;;
3924;SDS011;1977;52.274;10.518;2023-09-19T15:26:57;4.80;;;2.30;;
3924;SDS011;1977;52.274;10.518;2023-09-19T15:29:25;5.90;;;3.10;;
3924;SDS011;1977;52.274;10.518;2023-09-19T15:31:54;11.40;;;2.77;;
3924;SDS011;1977;52.274;10.518;2023-09-19T15:34:23;6.20;;;2.27;;
3924;SDS011;1977;52.274;10.518;2023-09-19T15:36:50;4.53;;;2.70;;